sensor_id;sensor_type;location;lat;lon;timestamp;temperature;humidity
35111;DHT22;21290;50.158;8.658;2023-05-20T00:00:43;13.10;99.90
35111;DHT22;21290;50.158;8.658;2023-05-20T00:03:10;13.10;99.90
35111;DHT22;21290;50.158;8.658;2023-05-20T00:05:37;13.10;99.90
35111;DHT22;21290;50.158;8.658;2023-05-20T00:08:03;13.20;99.90
35111;DHT22;21290;50.158;8.658;2023-05-20T00:10:33;13.20;99.90
35111;DHT22;21290;50.158;8.658;2023-05-20T00:12:59;13.20;99.90
35111;DHT22;21290;50.158;8.658;2023-05-20T00:15:26;13.20;99.90
35111;DHT22;21290;50.158;8.658;2023-05-20T00:17:54;13.30;99.90
35111;DHT22;21290;50.158;8.658;2023-05-20T00:20:21;13.30;99.90
35111;DHT22;21290;50.158;8.658;2023-05-20T00:22:47;13.30;99.90
35111;DHT22;21290;50.158;8.658;2023-05-20T00:25:14;13.30;99.90
35111;DHT22;21290;50.158;8.658;2023-05-20T00:27:41;13.40;99.90
35111;DHT22;21290;50.158;8.658;2023-05-20T00:30:08;13.40;99.90
35111;DHT22;21290;50.158;8.658;2023-05-20T00:32:35;13.40;99.90
35111;DHT22;21290;50.158;8.658;2023-05-20T00:35:03;13.30;99.90
35111;DHT22;21290;50.158;8.658;2023-05-20T00:37:29;13.30;99.90
35111;DHT22;21290;50.158;8.658;2023-05-20T00:39:56;13.30;99.90
35111;DHT22;21290;50.158;8.658;2023-05-20T00:42:24;13.30;99.90
35111;DHT22;21290;50.158;8.658;2023-05-20T00:44:52;13.20;99.90
35111;DHT22;21290;50.158;8.658;2023-05-20T00:47:20;13.20;99.90
35111;DHT22;21290;50.158;8.658;2023-05-20T00:49:49;13.20;99.90
35111;DHT22;21290;50.158;8.658;2023-05-20T00:52:17;13.10;99.90
35111;DHT22;21290;50.158;8.658;2023-05-20T00:54:44;13.10;99.90
35111;DHT22;21290;50.158;8.658;2023-05-20T00:57:12;13.10;99.90
35111;DHT22;21290;50.158;8.658;2023-05-20T00:59:39;13.00;99.90
35111;DHT22;21290;50.158;8.658;2023-05-20T01:02:08;13.00;99.90
35111;DHT22;21290;50.158;8.658;2023-05-20T01:04:35;13.00;99.90
35111;DHT22;21290;50.158;8.658;2023-05-20T01:07:03;12.90;99.90
35111;DHT22;21290;50.158;8.658;2023-05-20T01:09:31;12.80;99.90
35111;DHT22;21290;50.158;8.658;2023-05-20T01:12:12;12.80;99.90
35111;DHT22;21290;50.158;8.658;2023-05-20T01:14:49;12.70;99.90
35111;DHT22;21290;50.158;8.658;2023-05-20T01:17:18;12.70;99.90
35111;DHT22;21290;50.158;8.658;2023-05-20T01:19:46;12.70;99.90
35111;DHT22;21290;50.158;8.658;2023-05-20T01:22:14;12.60;99.90
35111;DHT22;21290;50.158;8.658;2023-05-20T01:24:43;12.60;99.90
35111;DHT22;21290;50.158;8.658;2023-05-20T01:27:11;12.50;99.90
35111;DHT22;21290;50.158;8.658;2023-05-20T01:29:40;12.50;99.90
35111;DHT22;21290;50.158;8.658;2023-05-20T01:32:15;12.50;99.90
35111;DHT22;21290;50.158;8.658;2023-05-20T01:34:44;12.40;99.90
35111;DHT22;21290;50.158;8.658;2023-05-20T01:37:13;12.40;99.90
35111;DHT22;21290;50.158;8.658;2023-05-20T01:39:41;12.30;99.90
35111;DHT22;21290;50.158;8.658;2023-05-20T01:42:09;12.30;99.90
35111;DHT22;21290;50.158;8.658;2023-05-20T01:44:36;12.30;99.90
35111;DHT22;21290;50.158;8.658;2023-05-20T01:47:03;12.20;99.90
35111;DHT22;21290;50.158;8.658;2023-05-20T01:49:30;12.20;99.90
35111;DHT22;21290;50.158;8.658;2023-05-20T01:51:57;12.20;99.90
35111;DHT22;21290;50.158;8.658;2023-05-20T01:54:23;12.10;99.90
35111;DHT22;21290;50.158;8.658;2023-05-20T01:56:50;12.10;99.90
35111;DHT22;21290;50.158;8.658;2023-05-20T01:59:17;12.10;99.90
35111;DHT22;21290;50.158;8.658;2023-05-20T02:01:44;12.20;99.90
35111;DHT22;21290;50.158;8.658;2023-05-20T02:04:11;12.10;99.90
35111;DHT22;21290;50.158;8.658;2023-05-20T02:06:38;12.10;99.90
35111;DHT22;21290;50.158;8.658;2023-05-20T02:09:05;12.20;99.90
35111;DHT22;21290;50.158;8.658;2023-05-20T02:11:32;12.20;99.90
35111;DHT22;21290;50.158;8.658;2023-05-20T02:13:59;12.20;99.90
35111;DHT22;21290;50.158;8.658;2023-05-20T02:16:26;12.30;99.90
35111;DHT22;21290;50.158;8.658;2023-05-20T02:18:53;12.30;99.90
35111;DHT22;21290;50.158;8.658;2023-05-20T02:21:20;12.30;99.90
35111;DHT22;21290;50.158;8.658;2023-05-20T02:23:46;12.30;99.90
35111;DHT22;21290;50.158;8.658;2023-05-20T02:26:13;12.40;99.90
35111;DHT22;21290;50.158;8.658;2023-05-20T02:28:39;12.40;99.90
35111;DHT22;21290;50.158;8.658;2023-05-20T02:31:12;12.40;99.90
35111;DHT22;21290;50.158;8.658;2023-05-20T02:33:38;12.40;99.90
35111;DHT22;21290;50.158;8.658;2023-05-20T02:36:05;12.50;99.90
35111;DHT22;21290;50.158;8.658;2023-05-20T02:38:32;12.50;99.90
35111;DHT22;21290;50.158;8.658;2023-05-20T02:40:59;12.50;99.90
35111;DHT22;21290;50.158;8.658;2023-05-20T02:43:25;12.60;99.90
35111;DHT22;21290;50.158;8.658;2023-05-20T02:45:52;12.60;99.90
35111;DHT22;21290;50.158;8.658;2023-05-20T02:48:19;12.70;99.90
35111;DHT22;21290;50.158;8.658;2023-05-20T02:50:46;12.70;99.90
35111;DHT22;21290;50.158;8.658;2023-05-20T02:53:13;12.80;99.90
35111;DHT22;21290;50.158;8.658;2023-05-20T02:55:39;12.80;99.90
35111;DHT22;21290;50.158;8.658;2023-05-20T02:58:06;12.80;99.90
35111;DHT22;21290;50.158;8.658;2023-05-20T03:00:32;12.90;99.90
35111;DHT22;21290;50.158;8.658;2023-05-20T03:03:06;12.90;99.90
35111;DHT22;21290;50.158;8.658;2023-05-20T03:05:33;13.00;99.90
35111;DHT22;21290;50.158;8.658;2023-05-20T03:08:08;13.00;99.90
35111;DHT22;21290;50.158;8.658;2023-05-20T03:10:38;13.10;99.90
35111;DHT22;21290;50.158;8.658;2023-05-20T03:13:06;13.10;99.90
35111;DHT22;21290;50.158;8.658;2023-05-20T03:15:34;13.10;99.90
35111;DHT22;21290;50.158;8.658;2023-05-20T03:18:01;13.20;99.90
35111;DHT22;21290;50.158;8.658;2023-05-20T03:20:29;13.20;99.90
35111;DHT22;21290;50.158;8.658;2023-05-20T03:22:55;13.20;99.90
35111;DHT22;21290;50.158;8.658;2023-05-20T03:25:23;13.20;99.90
35111;DHT22;21290;50.158;8.658;2023-05-20T03:27:50;13.20;99.90
35111;DHT22;21290;50.158;8.658;2023-05-20T03:30:17;13.10;99.90
35111;DHT22;21290;50.158;8.658;2023-05-20T03:32:43;13.10;99.90
35111;DHT22;21290;50.158;8.658;2023-05-20T03:35:10;13.10;99.90
35111;DHT22;21290;50.158;8.658;2023-05-20T03:37:37;13.10;99.90
35111;DHT22;21290;50.158;8.658;2023-05-20T03:40:04;13.00;99.90
35111;DHT22;21290;50.158;8.658;2023-05-20T03:42:34;13.00;99.90
35111;DHT22;21290;50.158;8.658;2023-05-20T03:45:01;13.00;99.90
35111;DHT22;21290;50.158;8.658;2023-05-20T03:47:28;12.90;99.90
35111;DHT22;21290;50.158;8.658;2023-05-20T03:49:55;12.90;99.90
35111;DHT22;21290;50.158;8.658;2023-05-20T03:52:21;12.80;99.90
35111;DHT22;21290;50.158;8.658;2023-05-20T03:54:48;12.90;99.90
35111;DHT22;21290;50.158;8.658;2023-05-20T03:57:15;12.80;99.90
35111;DHT22;21290;50.158;8.658;2023-05-20T03:59:42;12.90;99.90
35111;DHT22;21290;50.158;8.658;2023-05-20T04:02:08;12.80;99.90
35111;DHT22;21290;50.158;8.658;2023-05-20T04:04:35;12.90;99.90
35111;DHT22;21290;50.158;8.658;2023-05-20T04:07:02;12.90;99.90
35111;DHT22;21290;50.158;8.658;2023-05-20T04:09:30;13.00;99.90
35111;DHT22;21290;50.158;8.658;2023-05-20T04:11:56;13.00;99.90
35111;DHT22;21290;50.158;8.658;2023-05-20T04:14:23;13.10;99.90
35111;DHT22;21290;50.158;8.658;2023-05-20T04:16:50;13.10;99.90
35111;DHT22;21290;50.158;8.658;2023-05-20T04:19:17;13.20;99.90
35111;DHT22;21290;50.158;8.658;2023-05-20T04:21:49;13.20;99.90
35111;DHT22;21290;50.158;8.658;2023-05-20T04:24:16;13.30;99.90
35111;DHT22;21290;50.158;8.658;2023-05-20T04:26:42;13.30;99.90
35111;DHT22;21290;50.158;8.658;2023-05-20T04:29:09;13.40;99.90
35111;DHT22;21290;50.158;8.658;2023-05-20T04:31:37;13.40;99.90
35111;DHT22;21290;50.158;8.658;2023-05-20T04:34:04;13.40;99.90
35111;DHT22;21290;50.158;8.658;2023-05-20T04:36:30;13.50;99.90
35111;DHT22;21290;50.158;8.658;2023-05-20T04:38:57;13.50;99.90
35111;DHT22;21290;50.158;8.658;2023-05-20T04:41:24;13.50;99.90
35111;DHT22;21290;50.158;8.658;2023-05-20T04:43:51;13.60;99.90
35111;DHT22;21290;50.158;8.658;2023-05-20T04:46:17;13.60;99.90
35111;DHT22;21290;50.158;8.658;2023-05-20T04:48:45;13.60;99.90
35111;DHT22;21290;50.158;8.658;2023-05-20T04:51:13;13.70;99.90
35111;DHT22;21290;50.158;8.658;2023-05-20T04:53:40;13.70;99.90
35111;DHT22;21290;50.158;8.658;2023-05-20T04:56:09;13.70;99.90
35111;DHT22;21290;50.158;8.658;2023-05-20T04:58:36;13.80;99.90
35111;DHT22;21290;50.158;8.658;2023-05-20T05:01:03;13.90;99.90
35111;DHT22;21290;50.158;8.658;2023-05-20T05:03:30;14.00;99.90
35111;DHT22;21290;50.158;8.658;2023-05-20T05:05:57;14.00;99.90
35111;DHT22;21290;50.158;8.658;2023-05-20T05:08:24;14.10;99.90
35111;DHT22;21290;50.158;8.658;2023-05-20T05:10:52;14.20;99.90
35111;DHT22;21290;50.158;8.658;2023-05-20T05:13:18;14.30;99.90
35111;DHT22;21290;50.158;8.658;2023-05-20T05:15:45;14.40;99.90
35111;DHT22;21290;50.158;8.658;2023-05-20T05:18:12;14.60;99.90
35111;DHT22;21290;50.158;8.658;2023-05-20T05:20:39;14.70;99.90
35111;DHT22;21290;50.158;8.658;2023-05-20T05:23:05;14.70;99.90
35111;DHT22;21290;50.158;8.658;2023-05-20T05:25:32;14.70;99.90
35111;DHT22;21290;50.158;8.658;2023-05-20T05:27:59;14.80;99.90
35111;DHT22;21290;50.158;8.658;2023-05-20T05:30:26;14.90;99.90
35111;DHT22;21290;50.158;8.658;2023-05-20T05:32:52;14.90;99.90
35111;DHT22;21290;50.158;8.658;2023-05-20T05:35:19;14.90;99.90
35111;DHT22;21290;50.158;8.658;2023-05-20T05:37:46;15.00;99.90
35111;DHT22;21290;50.158;8.658;2023-05-20T05:40:13;15.10;99.90
35111;DHT22;21290;50.158;8.658;2023-05-20T05:42:39;15.20;99.90
35111;DHT22;21290;50.158;8.658;2023-05-20T05:45:07;15.30;99.90
35111;DHT22;21290;50.158;8.658;2023-05-20T05:47:34;15.40;99.90
35111;DHT22;21290;50.158;8.658;2023-05-20T05:50:00;15.40;99.90
35111;DHT22;21290;50.158;8.658;2023-05-20T05:52:27;15.50;99.90
35111;DHT22;21290;50.158;8.658;2023-05-20T05:54:53;15.60;99.90
35111;DHT22;21290;50.158;8.658;2023-05-20T05:57:20;15.70;99.90
35111;DHT22;21290;50.158;8.658;2023-05-20T05:59:47;15.80;99.90
35111;DHT22;21290;50.158;8.658;2023-05-20T06:02:14;15.90;99.90
35111;DHT22;21290;50.158;8.658;2023-05-20T06:04:40;16.00;99.90
35111;DHT22;21290;50.158;8.658;2023-05-20T06:07:07;16.10;99.90
35111;DHT22;21290;50.158;8.658;2023-05-20T06:09:34;16.10;99.90
35111;DHT22;21290;50.158;8.658;2023-05-20T06:12:00;16.10;99.90
35111;DHT22;21290;50.158;8.658;2023-05-20T06:14:28;16.20;99.90
35111;DHT22;21290;50.158;8.658;2023-05-20T06:16:54;16.30;99.90
35111;DHT22;21290;50.158;8.658;2023-05-20T06:19:21;16.40;99.90
35111;DHT22;21290;50.158;8.658;2023-05-20T06:21:48;16.40;99.90
35111;DHT22;21290;50.158;8.658;2023-05-20T06:24:15;16.40;99.90
35111;DHT22;21290;50.158;8.658;2023-05-20T06:26:41;16.50;99.90
35111;DHT22;21290;50.158;8.658;2023-05-20T06:29:08;16.50;99.90
35111;DHT22;21290;50.158;8.658;2023-05-20T06:31:35;16.60;99.90
35111;DHT22;21290;50.158;8.658;2023-05-20T06:34:01;16.60;99.90
35111;DHT22;21290;50.158;8.658;2023-05-20T06:36:28;16.70;99.90
35111;DHT22;21290;50.158;8.658;2023-05-20T06:38:57;16.60;99.90
35111;DHT22;21290;50.158;8.658;2023-05-20T06:41:24;16.60;99.90
35111;DHT22;21290;50.158;8.658;2023-05-20T06:43:50;16.60;99.90
35111;DHT22;21290;50.158;8.658;2023-05-20T06:46:19;16.50;99.90
35111;DHT22;21290;50.158;8.658;2023-05-20T06:48:45;16.60;99.90
35111;DHT22;21290;50.158;8.658;2023-05-20T06:51:12;16.70;99.90
35111;DHT22;21290;50.158;8.658;2023-05-20T06:53:39;16.70;99.90
35111;DHT22;21290;50.158;8.658;2023-05-20T06:56:06;16.60;99.90
35111;DHT22;21290;50.158;8.658;2023-05-20T06:58:32;16.70;99.90
35111;DHT22;21290;50.158;8.658;2023-05-20T07:00:59;16.70;99.90
35111;DHT22;21290;50.158;8.658;2023-05-20T07:03:26;16.80;99.90
35111;DHT22;21290;50.158;8.658;2023-05-20T07:05:52;16.80;99.90
35111;DHT22;21290;50.158;8.658;2023-05-20T07:08:19;16.90;99.90
35111;DHT22;21290;50.158;8.658;2023-05-20T07:10:46;17.10;99.90
35111;DHT22;21290;50.158;8.658;2023-05-20T07:13:13;17.10;99.90
35111;DHT22;21290;50.158;8.658;2023-05-20T07:15:40;17.20;99.90
35111;DHT22;21290;50.158;8.658;2023-05-20T07:18:07;17.30;99.90
35111;DHT22;21290;50.158;8.658;2023-05-20T07:20:33;17.30;99.90
35111;DHT22;21290;50.158;8.658;2023-05-20T07:23:00;17.50;99.90
35111;DHT22;21290;50.158;8.658;2023-05-20T07:25:29;17.60;99.90
35111;DHT22;21290;50.158;8.658;2023-05-20T07:27:56;17.70;99.90
35111;DHT22;21290;50.158;8.658;2023-05-20T07:30:22;17.80;99.90
35111;DHT22;21290;50.158;8.658;2023-05-20T07:32:49;17.90;99.90
35111;DHT22;21290;50.158;8.658;2023-05-20T07:35:16;18.00;99.90
35111;DHT22;21290;50.158;8.658;2023-05-20T07:37:42;18.20;99.90
35111;DHT22;21290;50.158;8.658;2023-05-20T07:40:09;18.40;99.90
35111;DHT22;21290;50.158;8.658;2023-05-20T07:42:36;18.50;99.90
35111;DHT22;21290;50.158;8.658;2023-05-20T07:45:03;18.80;99.90
35111;DHT22;21290;50.158;8.658;2023-05-20T07:47:31;19.20;99.90
35111;DHT22;21290;50.158;8.658;2023-05-20T07:49:58;19.40;99.90
35111;DHT22;21290;50.158;8.658;2023-05-20T07:52:24;19.60;99.90
35111;DHT22;21290;50.158;8.658;2023-05-20T07:54:51;20.00;99.90
35111;DHT22;21290;50.158;8.658;2023-05-20T07:57:18;20.00;99.90
35111;DHT22;21290;50.158;8.658;2023-05-20T07:59:44;20.30;99.90
35111;DHT22;21290;50.158;8.658;2023-05-20T08:02:11;20.70;99.90
35111;DHT22;21290;50.158;8.658;2023-05-20T08:04:38;21.10;99.90
35111;DHT22;21290;50.158;8.658;2023-05-20T08:07:05;21.40;99.90
35111;DHT22;21290;50.158;8.658;2023-05-20T08:09:33;22.10;99.80
35111;DHT22;21290;50.158;8.658;2023-05-20T08:12:00;22.60;98.40
35111;DHT22;21290;50.158;8.658;2023-05-20T08:14:26;22.90;97.60
35111;DHT22;21290;50.158;8.658;2023-05-20T08:16:53;23.10;97.00
35111;DHT22;21290;50.158;8.658;2023-05-20T08:19:20;23.70;96.30
35111;DHT22;21290;50.158;8.658;2023-05-20T08:21:47;23.90;95.50
35111;DHT22;21290;50.158;8.658;2023-05-20T08:24:14;24.10;95.30
35111;DHT22;21290;50.158;8.658;2023-05-20T08:26:40;23.90;94.40
35111;DHT22;21290;50.158;8.658;2023-05-20T08:29:07;24.00;94.40
35111;DHT22;21290;50.158;8.658;2023-05-20T08:31:34;24.40;93.80
35111;DHT22;21290;50.158;8.658;2023-05-20T08:34:00;24.60;93.40
35111;DHT22;21290;50.158;8.658;2023-05-20T08:36:27;24.60;92.80
35111;DHT22;21290;50.158;8.658;2023-05-20T08:38:54;24.70;92.80
35111;DHT22;21290;50.158;8.658;2023-05-20T08:41:21;25.00;92.70
35111;DHT22;21290;50.158;8.658;2023-05-20T08:43:49;25.00;91.80
35111;DHT22;21290;50.158;8.658;2023-05-20T08:46:17;25.50;91.10
35111;DHT22;21290;50.158;8.658;2023-05-20T08:48:44;26.20;89.60
35111;DHT22;21290;50.158;8.658;2023-05-20T08:51:14;27.80;86.40
35111;DHT22;21290;50.158;8.658;2023-05-20T08:53:41;29.30;81.20
35111;DHT22;21290;50.158;8.658;2023-05-20T08:56:08;30.80;75.80
35111;DHT22;21290;50.158;8.658;2023-05-20T08:58:36;31.80;70.90
35111;DHT22;21290;50.158;8.658;2023-05-20T09:01:03;32.90;67.10
35111;DHT22;21290;50.158;8.658;2023-05-20T09:03:32;33.00;63.80
35111;DHT22;21290;50.158;8.658;2023-05-20T09:06:08;33.40;63.60
35111;DHT22;21290;50.158;8.658;2023-05-20T09:08:35;33.60;62.60
35111;DHT22;21290;50.158;8.658;2023-05-20T09:11:02;34.10;60.50
35111;DHT22;21290;50.158;8.658;2023-05-20T09:13:30;35.00;59.10
35111;DHT22;21290;50.158;8.658;2023-05-20T09:15:59;35.50;58.00
35111;DHT22;21290;50.158;8.658;2023-05-20T09:18:28;34.40;57.00
35111;DHT22;21290;50.158;8.658;2023-05-20T09:20:54;33.70;58.30
35111;DHT22;21290;50.158;8.658;2023-05-20T09:23:21;32.40;57.90
35111;DHT22;21290;50.158;8.658;2023-05-20T09:25:49;31.20;59.70
35111;DHT22;21290;50.158;8.658;2023-05-20T09:28:21;29.80;62.50
35111;DHT22;21290;50.158;8.658;2023-05-20T09:30:55;28.30;65.00
35111;DHT22;21290;50.158;8.658;2023-05-20T09:33:29;27.20;66.70
35111;DHT22;21290;50.158;8.658;2023-05-20T09:36:02;26.20;69.50
35111;DHT22;21290;50.158;8.658;2023-05-20T09:38:33;25.60;71.30
35111;DHT22;21290;50.158;8.658;2023-05-20T09:41:13;24.90;72.80
35111;DHT22;21290;50.158;8.658;2023-05-20T09:43:41;24.40;74.40
35111;DHT22;21290;50.158;8.658;2023-05-20T09:46:07;24.30;76.10
35111;DHT22;21290;50.158;8.658;2023-05-20T09:48:35;24.10;76.30
35111;DHT22;21290;50.158;8.658;2023-05-20T09:51:05;23.80;77.10
35111;DHT22;21290;50.158;8.658;2023-05-20T09:53:33;23.60;78.60
35111;DHT22;21290;50.158;8.658;2023-05-20T09:56:01;23.40;80.90
35111;DHT22;21290;50.158;8.658;2023-05-20T09:58:28;23.40;80.70
35111;DHT22;21290;50.158;8.658;2023-05-20T10:00:55;23.60;80.50
35111;DHT22;21290;50.158;8.658;2023-05-20T10:03:23;24.50;80.70
35111;DHT22;21290;50.158;8.658;2023-05-20T10:06:16;25.60;78.30
35111;DHT22;21290;50.158;8.658;2023-05-20T10:12:26;27.60;75.10
35111;DHT22;21290;50.158;8.658;2023-05-20T10:15:16;29.50;68.50
35111;DHT22;21290;50.158;8.658;2023-05-20T10:17:45;31.10;66.20
35111;DHT22;21290;50.158;8.658;2023-05-20T10:20:16;31.40;62.60
35111;DHT22;21290;50.158;8.658;2023-05-20T10:22:54;30.80;62.80
35111;DHT22;21290;50.158;8.658;2023-05-20T10:25:26;30.60;64.30
35111;DHT22;21290;50.158;8.658;2023-05-20T10:28:07;29.90;63.00
35111;DHT22;21290;50.158;8.658;2023-05-20T10:30:34;29.30;64.80
35111;DHT22;21290;50.158;8.658;2023-05-20T10:33:05;28.80;66.70
35111;DHT22;21290;50.158;8.658;2023-05-20T10:35:32;29.20;65.90
35111;DHT22;21290;50.158;8.658;2023-05-20T10:38:09;30.10;65.40
35111;DHT22;21290;50.158;8.658;2023-05-20T10:40:36;31.80;63.70
35111;DHT22;21290;50.158;8.658;2023-05-20T10:43:16;32.80;62.20
35111;DHT22;21290;50.158;8.658;2023-05-20T10:45:52;33.70;59.10
35111;DHT22;21290;50.158;8.658;2023-05-20T10:48:19;34.10;58.20
35111;DHT22;21290;50.158;8.658;2023-05-20T10:50:47;34.60;57.90
35111;DHT22;21290;50.158;8.658;2023-05-20T10:53:14;34.90;57.20
35111;DHT22;21290;50.158;8.658;2023-05-20T10:55:58;34.90;57.30
35111;DHT22;21290;50.158;8.658;2023-05-20T10:58:25;35.40;56.40
35111;DHT22;21290;50.158;8.658;2023-05-20T11:00:53;35.30;54.80
35111;DHT22;21290;50.158;8.658;2023-05-20T11:03:21;34.60;55.10
35111;DHT22;21290;50.158;8.658;2023-05-20T11:05:49;33.70;56.00
35111;DHT22;21290;50.158;8.658;2023-05-20T11:08:16;33.90;56.30
35111;DHT22;21290;50.158;8.658;2023-05-20T11:10:55;34.20;56.00
35111;DHT22;21290;50.158;8.658;2023-05-20T11:13:22;34.10;54.90
35111;DHT22;21290;50.158;8.658;2023-05-20T11:15:49;33.80;55.20
35111;DHT22;21290;50.158;8.658;2023-05-20T11:18:16;33.50;55.60
35111;DHT22;21290;50.158;8.658;2023-05-20T11:20:45;33.40;56.30
35111;DHT22;21290;50.158;8.658;2023-05-20T11:23:13;33.50;57.20
35111;DHT22;21290;50.158;8.658;2023-05-20T11:25:40;33.70;55.80
35111;DHT22;21290;50.158;8.658;2023-05-20T11:28:11;33.50;55.30
35111;DHT22;21290;50.158;8.658;2023-05-20T11:30:41;33.10;56.40
35111;DHT22;21290;50.158;8.658;2023-05-20T11:33:11;32.20;56.90
35111;DHT22;21290;50.158;8.658;2023-05-20T11:35:44;32.00;57.30
35111;DHT22;21290;50.158;8.658;2023-05-20T11:38:12;32.00;57.10
35111;DHT22;21290;50.158;8.658;2023-05-20T11:40:45;32.50;57.20
35111;DHT22;21290;50.158;8.658;2023-05-20T11:43:17;33.00;56.60
35111;DHT22;21290;50.158;8.658;2023-05-20T11:45:45;33.30;56.60
35111;DHT22;21290;50.158;8.658;2023-05-20T11:48:12;32.80;55.20
35111;DHT22;21290;50.158;8.658;2023-05-20T11:50:42;32.90;56.90
35111;DHT22;21290;50.158;8.658;2023-05-20T11:53:10;32.80;56.80
35111;DHT22;21290;50.158;8.658;2023-05-20T11:58:26;32.10;57.30
35111;DHT22;21290;50.158;8.658;2023-05-20T12:00:54;31.10;58.30
35111;DHT22;21290;50.158;8.658;2023-05-20T12:03:35;30.50;59.30
35111;DHT22;21290;50.158;8.658;2023-05-20T12:06:02;29.30;60.90
35111;DHT22;21290;50.158;8.658;2023-05-20T12:08:29;28.60;61.40
35111;DHT22;21290;50.158;8.658;2023-05-20T12:10:56;28.00;62.80
35111;DHT22;21290;50.158;8.658;2023-05-20T12:13:23;27.90;65.60
35111;DHT22;21290;50.158;8.658;2023-05-20T12:15:49;27.50;64.20
35111;DHT22;21290;50.158;8.658;2023-05-20T12:18:16;27.30;65.20
35111;DHT22;21290;50.158;8.658;2023-05-20T12:20:43;26.80;65.70
35111;DHT22;21290;50.158;8.658;2023-05-20T12:23:09;26.60;66.50
35111;DHT22;21290;50.158;8.658;2023-05-20T12:25:36;26.60;67.50
35111;DHT22;21290;50.158;8.658;2023-05-20T12:28:03;26.40;67.80
35111;DHT22;21290;50.158;8.658;2023-05-20T12:30:29;26.20;68.10
35111;DHT22;21290;50.158;8.658;2023-05-20T12:32:56;25.80;69.00
35111;DHT22;21290;50.158;8.658;2023-05-20T12:35:36;25.50;70.50
35111;DHT22;21290;50.158;8.658;2023-05-20T12:38:03;25.20;69.70
35111;DHT22;21290;50.158;8.658;2023-05-20T12:40:30;25.20;71.00
35111;DHT22;21290;50.158;8.658;2023-05-20T12:42:57;25.20;71.80
35111;DHT22;21290;50.158;8.658;2023-05-20T12:45:24;25.20;71.90
35111;DHT22;21290;50.158;8.658;2023-05-20T12:47:51;25.20;71.70
35111;DHT22;21290;50.158;8.658;2023-05-20T12:50:17;24.90;72.80
35111;DHT22;21290;50.158;8.658;2023-05-20T12:52:44;24.80;73.10
35111;DHT22;21290;50.158;8.658;2023-05-20T12:55:11;24.80;74.00
35111;DHT22;21290;50.158;8.658;2023-05-20T12:57:42;24.80;74.40
35111;DHT22;21290;50.158;8.658;2023-05-20T13:00:10;24.70;73.80
35111;DHT22;21290;50.158;8.658;2023-05-20T13:02:37;24.70;74.00
35111;DHT22;21290;50.158;8.658;2023-05-20T13:05:05;24.80;74.00
35111;DHT22;21290;50.158;8.658;2023-05-20T13:07:32;24.80;74.00
35111;DHT22;21290;50.158;8.658;2023-05-20T13:09:59;24.50;74.20
35111;DHT22;21290;50.158;8.658;2023-05-20T13:12:26;24.30;74.00
35111;DHT22;21290;50.158;8.658;2023-05-20T13:14:53;24.20;75.80
35111;DHT22;21290;50.158;8.658;2023-05-20T13:17:19;24.10;75.30
35111;DHT22;21290;50.158;8.658;2023-05-20T13:19:46;24.00;75.60
35111;DHT22;21290;50.158;8.658;2023-05-20T13:22:13;24.00;77.00
35111;DHT22;21290;50.158;8.658;2023-05-20T13:24:39;24.20;76.60
35111;DHT22;21290;50.158;8.658;2023-05-20T13:27:06;24.30;76.20
35111;DHT22;21290;50.158;8.658;2023-05-20T13:29:33;24.30;76.20
35111;DHT22;21290;50.158;8.658;2023-05-20T13:32:00;24.30;75.90
35111;DHT22;21290;50.158;8.658;2023-05-20T13:34:28;24.10;76.10
35111;DHT22;21290;50.158;8.658;2023-05-20T13:36:55;24.10;77.50
35111;DHT22;21290;50.158;8.658;2023-05-20T13:39:21;24.00;77.50
35111;DHT22;21290;50.158;8.658;2023-05-20T13:41:48;24.00;77.60
35111;DHT22;21290;50.158;8.658;2023-05-20T13:44:15;24.00;78.40
35111;DHT22;21290;50.158;8.658;2023-05-20T13:46:41;23.90;77.10
35111;DHT22;21290;50.158;8.658;2023-05-20T13:49:08;23.90;77.70
35111;DHT22;21290;50.158;8.658;2023-05-20T13:51:35;23.90;77.50
35111;DHT22;21290;50.158;8.658;2023-05-20T13:54:02;23.90;77.80
35111;DHT22;21290;50.158;8.658;2023-05-20T13:56:29;23.80;77.80
35111;DHT22;21290;50.158;8.658;2023-05-20T13:58:55;23.80;79.20
35111;DHT22;21290;50.158;8.658;2023-05-20T14:01:22;23.70;78.80
35111;DHT22;21290;50.158;8.658;2023-05-20T14:03:49;23.80;80.50
35111;DHT22;21290;50.158;8.658;2023-05-20T14:06:16;23.70;78.90
35111;DHT22;21290;50.158;8.658;2023-05-20T14:08:46;23.70;78.70
35111;DHT22;21290;50.158;8.658;2023-05-20T14:11:12;23.70;79.40
35111;DHT22;21290;50.158;8.658;2023-05-20T14:13:40;23.70;79.70
35111;DHT22;21290;50.158;8.658;2023-05-20T14:16:06;23.60;80.00
35111;DHT22;21290;50.158;8.658;2023-05-20T14:18:33;23.50;80.60
35111;DHT22;21290;50.158;8.658;2023-05-20T14:21:00;23.40;81.70
35111;DHT22;21290;50.158;8.658;2023-05-20T14:23:26;23.30;81.30
35111;DHT22;21290;50.158;8.658;2023-05-20T14:25:53;23.10;81.50
35111;DHT22;21290;50.158;8.658;2023-05-20T14:28:20;23.10;82.30
35111;DHT22;21290;50.158;8.658;2023-05-20T14:30:46;23.10;82.80
35111;DHT22;21290;50.158;8.658;2023-05-20T14:33:13;23.10;82.70
35111;DHT22;21290;50.158;8.658;2023-05-20T14:35:40;23.00;83.10
35111;DHT22;21290;50.158;8.658;2023-05-20T14:38:06;23.10;83.20
35111;DHT22;21290;50.158;8.658;2023-05-20T14:40:33;23.30;82.80
35111;DHT22;21290;50.158;8.658;2023-05-20T14:43:00;23.30;83.40
35111;DHT22;21290;50.158;8.658;2023-05-20T14:45:27;23.20;83.00
35111;DHT22;21290;50.158;8.658;2023-05-20T14:47:53;23.40;83.70
35111;DHT22;21290;50.158;8.658;2023-05-20T14:50:20;23.30;82.50
35111;DHT22;21290;50.158;8.658;2023-05-20T14:52:48;23.30;83.60
35111;DHT22;21290;50.158;8.658;2023-05-20T14:55:14;23.20;83.20
35111;DHT22;21290;50.158;8.658;2023-05-20T14:57:41;23.30;83.60
35111;DHT22;21290;50.158;8.658;2023-05-20T15:00:08;23.30;84.20
35111;DHT22;21290;50.158;8.658;2023-05-20T15:02:36;23.40;84.80
35111;DHT22;21290;50.158;8.658;2023-05-20T15:05:03;23.40;84.00
35111;DHT22;21290;50.158;8.658;2023-05-20T15:07:29;23.30;84.40
35111;DHT22;21290;50.158;8.658;2023-05-20T15:09:56;23.40;84.50
35111;DHT22;21290;50.158;8.658;2023-05-20T15:12:23;23.40;83.70
35111;DHT22;21290;50.158;8.658;2023-05-20T15:14:50;23.60;84.40
35111;DHT22;21290;50.158;8.658;2023-05-20T15:17:16;23.60;84.00
35111;DHT22;21290;50.158;8.658;2023-05-20T15:19:43;23.60;84.40
35111;DHT22;21290;50.158;8.658;2023-05-20T15:22:09;23.50;84.20
35111;DHT22;21290;50.158;8.658;2023-05-20T15:24:36;23.40;84.50
35111;DHT22;21290;50.158;8.658;2023-05-20T15:27:03;23.30;84.90
35111;DHT22;21290;50.158;8.658;2023-05-20T15:29:30;23.00;84.40
35111;DHT22;21290;50.158;8.658;2023-05-20T15:31:57;23.10;85.30
35111;DHT22;21290;50.158;8.658;2023-05-20T15:34:23;23.20;85.60
35111;DHT22;21290;50.158;8.658;2023-05-20T15:36:50;23.40;85.90
35111;DHT22;21290;50.158;8.658;2023-05-20T15:39:18;23.40;85.60